createdAt,value
2018-06-13T00:00:21.304Z,99.99
2018-06-13T00:01:21.296Z,99.99
2018-06-13T00:02:21.287Z,99.99
2018-06-13T00:03:21.280Z,99.99
2018-06-13T00:04:21.273Z,99.99
2018-06-13T00:05:21.270Z,99.99
2018-06-13T00:06:21.260Z,99.99
2018-06-13T00:07:21.250Z,99.99
2018-06-13T00:08:21.242Z,99.99
2018-06-13T00:09:21.241Z,99.99
2018-06-13T00:10:21.226Z,99.99
2018-06-13T00:11:21.219Z,99.99
2018-06-13T00:12:21.413Z,99.99
2018-06-13T00:13:21.206Z,99.99
2018-06-13T00:14:21.196Z,99.99
2018-06-13T00:15:21.188Z,99.99
2018-06-13T00:16:21.181Z,99.99
2018-06-13T00:17:21.172Z,99.99
2018-06-13T00:18:21.163Z,99.99
2018-06-13T00:19:21.156Z,99.99
2018-06-13T00:20:21.148Z,99.99
2018-06-13T00:21:21.141Z,99.99
2018-06-13T00:22:21.133Z,99.99
2018-06-13T00:23:21.125Z,99.99
2018-06-13T00:24:21.119Z,99.99
2018-06-13T00:25:21.311Z,99.99
2018-06-13T00:26:21.101Z,99.99
2018-06-13T00:27:21.093Z,99.99
2018-06-13T00:29:21.077Z,99.99
2018-06-13T00:30:21.069Z,99.99
2018-06-13T00:31:21.061Z,99.99
2018-06-13T00:32:21.053Z,99.99
2018-06-13T00:33:21.045Z,99.99
2018-06-13T00:34:21.036Z,99.99
2018-06-13T00:35:21.028Z,99.99
2018-06-13T00:36:21.021Z,99.99
2018-06-13T00:37:21.017Z,99.99
2018-06-13T00:38:21.007Z,99.99
2018-06-13T00:39:21.003Z,99.99
2018-06-13T00:40:20.989Z,99.99
2018-06-13T00:41:20.981Z,99.99
2018-06-13T00:42:20.971Z,99.99
2018-06-13T00:43:20.964Z,99.99
2018-06-13T00:44:20.955Z,99.99
2018-06-13T00:45:20.947Z,99.99
2018-06-13T00:46:20.980Z,99.99
2018-06-13T00:47:20.934Z,99.99
2018-06-13T00:48:20.923Z,99.99
2018-06-13T00:49:21.118Z,99.99
2018-06-13T00:50:20.906Z,99.99
2018-06-13T00:51:20.898Z,99.99
2018-06-13T00:52:20.890Z,99.99
2018-06-13T00:53:20.885Z,99.99
2018-06-13T00:54:20.875Z,99.99
2018-06-13T00:55:20.865Z,99.99
2018-06-13T00:56:20.857Z,99.99
2018-06-13T00:57:20.850Z,99.99
2018-06-13T00:58:20.841Z,99.99
2018-06-13T00:59:20.833Z,99.99
2018-06-13T01:00:20.825Z,99.99
2018-06-13T01:01:20.817Z,99.99
2018-06-13T01:02:20.807Z,99.99
2018-06-13T01:03:20.800Z,99.99
2018-06-13T01:04:20.791Z,99.99
2018-06-13T01:05:20.786Z,99.99
2018-06-13T01:06:20.774Z,99.99
2018-06-13T01:07:20.767Z,99.99
2018-06-13T01:08:20.759Z,99.99
2018-06-13T01:09:20.751Z,99.99
2018-06-13T01:10:20.741Z,99.99
2018-06-13T01:11:20.734Z,99.99
2018-06-13T01:12:20.725Z,99.99
2018-06-13T01:13:20.717Z,99.99
2018-06-13T01:14:20.710Z,99.99
2018-06-13T01:15:20.700Z,99.99
2018-06-13T01:16:20.692Z,99.99
2018-06-13T01:17:20.686Z,99.99
2018-06-13T01:18:20.674Z,99.99
2018-06-13T01:19:20.666Z,99.99
2018-06-13T01:20:20.657Z,99.99
2018-06-13T01:21:20.649Z,99.99
2018-06-13T01:22:20.640Z,99.99
2018-06-13T01:23:20.633Z,99.99
2018-06-13T01:24:20.624Z,99.99
2018-06-13T01:25:20.616Z,99.99
2018-06-13T01:26:20.607Z,99.99
2018-06-13T01:27:20.598Z,99.99
2018-06-13T01:28:20.591Z,99.99
2018-06-13T01:29:20.841Z,99.99
2018-06-13T01:30:20.574Z,99.99
2018-06-13T01:31:20.566Z,99.99
2018-06-13T01:32:20.558Z,99.99
2018-06-13T01:33:20.550Z,99.99
2018-06-13T01:34:20.541Z,99.99
2018-06-13T01:35:20.535Z,99.99
2018-06-13T01:36:20.525Z,99.99
2018-06-13T01:37:20.719Z,99.99
2018-06-13T01:38:20.509Z,99.99
2018-06-13T01:39:20.500Z,99.99
2018-06-13T01:40:20.492Z,99.99
2018-06-13T01:41:20.484Z,99.99
2018-06-13T01:42:20.476Z,99.99
2018-06-13T01:43:20.467Z,99.99
2018-06-13T01:44:20.461Z,99.99
2018-06-13T01:45:20.451Z,99.99
2018-06-13T01:46:20.442Z,99.99
2018-06-13T01:47:20.435Z,99.99
2018-06-13T01:48:20.427Z,99.99
2018-06-13T01:49:20.419Z,99.99
2018-06-13T01:50:20.417Z,99.99
2018-06-13T01:51:20.403Z,99.99
2018-06-13T01:52:20.396Z,99.99
2018-06-13T01:53:20.389Z,99.99
2018-06-13T01:54:20.382Z,99.99
2018-06-13T01:55:20.371Z,99.99
2018-06-13T01:56:20.364Z,99.99
2018-06-13T01:57:20.359Z,99.99
2018-06-13T01:58:20.347Z,99.99
2018-06-13T01:59:20.340Z,99.99
2018-06-13T02:00:20.335Z,99.99
2018-06-13T02:01:20.325Z,99.99
2018-06-13T02:02:20.318Z,99.99
2018-06-13T02:03:20.308Z,99.99
2018-06-13T02:04:20.301Z,99.99
2018-06-13T02:05:20.295Z,99.99
2018-06-13T02:06:20.290Z,99.99
2018-06-13T02:07:20.277Z,99.99
2018-06-13T02:08:20.269Z,99.99
2018-06-13T02:09:20.261Z,99.99
2018-06-13T02:10:20.253Z,99.99
2018-06-13T02:11:20.249Z,99.99
2018-06-13T02:12:20.238Z,99.99
2018-06-13T02:13:20.230Z,99.99
2018-06-13T02:14:20.221Z,99.99
2018-06-13T02:15:20.215Z,99.99
2018-06-13T02:16:20.206Z,99.99
2018-06-13T02:17:20.200Z,99.99
2018-06-13T02:18:20.189Z,99.99
2018-06-13T02:19:20.182Z,99.99
2018-06-13T02:20:20.174Z,99.99
2018-06-13T02:21:20.169Z,99.99
2018-06-13T02:22:20.157Z,99.99
2018-06-13T02:23:20.150Z,99.99
2018-06-13T02:24:20.142Z,99.99
2018-06-13T02:25:20.134Z,99.99
2018-06-13T02:26:20.129Z,99.99
2018-06-13T02:27:20.179Z,99.99
2018-06-13T02:28:20.110Z,99.99
2018-06-13T02:29:20.109Z,99.99
2018-06-13T02:30:20.094Z,99.99
2018-06-13T02:31:20.086Z,99.99
2018-06-13T02:32:20.078Z,99.99
2018-06-13T02:33:20.070Z,99.99
2018-06-13T02:34:20.061Z,99.99
2018-06-13T02:35:20.054Z,99.99
2018-06-13T02:36:20.046Z,99.99
2018-06-13T02:37:20.041Z,99.99
2018-06-13T02:38:20.030Z,99.99
2018-06-13T02:39:20.023Z,99.99
2018-06-13T02:40:20.022Z,99.99
2018-06-13T02:41:20.009Z,99.99
2018-06-13T02:42:19.997Z,99.99
2018-06-13T02:43:19.989Z,99.99
2018-06-13T02:44:19.982Z,99.99
2018-06-13T02:45:19.974Z,99.99
2018-06-13T02:46:19.965Z,99.99
2018-06-13T02:47:19.957Z,99.99
2018-06-13T02:48:19.952Z,99.99
2018-06-13T02:49:19.941Z,99.99
2018-06-13T02:50:19.935Z,99.99
2018-06-13T02:51:19.925Z,99.99
2018-06-13T02:52:19.918Z,99.99
2018-06-13T02:53:19.910Z,99.99
2018-06-13T02:54:19.903Z,99.99
2018-06-13T02:55:19.894Z,99.99
2018-06-13T02:56:19.884Z,99.99
2018-06-13T02:57:19.877Z,99.99
2018-06-13T02:58:19.867Z,99.99
2018-06-13T02:59:19.860Z,99.99
2018-06-13T03:00:19.852Z,99.99
2018-06-13T03:01:19.844Z,99.99
2018-06-13T03:02:19.835Z,99.99
2018-06-13T03:03:19.827Z,99.99
2018-06-13T03:04:19.819Z,99.99
2018-06-13T03:05:19.811Z,99.99
2018-06-13T03:06:19.802Z,99.99
2018-06-13T03:07:19.795Z,99.99
2018-06-13T03:08:19.787Z,99.99
2018-06-13T03:09:19.781Z,99.99
2018-06-13T03:10:19.771Z,99.99
2018-06-13T03:11:19.762Z,99.99
2018-06-13T03:12:19.755Z,99.99
2018-06-13T03:13:19.747Z,99.99
2018-06-13T03:14:19.744Z,99.99
2018-06-13T03:15:19.730Z,99.99
2018-06-13T03:16:19.724Z,99.99
2018-06-13T03:17:19.715Z,99.99
2018-06-13T03:18:19.711Z,99.99
2018-06-13T03:19:19.698Z,99.99
2018-06-13T03:20:19.690Z,99.99
2018-06-13T03:21:19.682Z,99.99
2018-06-13T03:22:19.673Z,99.99
2018-06-13T03:23:19.665Z,99.99
2018-06-13T03:24:19.657Z,99.99
2018-06-13T03:25:19.650Z,99.99
2018-06-13T03:26:19.644Z,99.99
2018-06-13T03:27:19.633Z,99.99
2018-06-13T03:28:19.626Z,99.99
2018-06-13T03:29:19.617Z,99.99
2018-06-13T03:30:19.609Z,99.99
2018-06-13T03:31:19.605Z,99.99
2018-06-13T03:32:19.593Z,99.99
2018-06-13T03:33:19.588Z,99.99
2018-06-13T03:34:19.577Z,99.99
2018-06-13T03:35:19.568Z,99.99
2018-06-13T03:36:19.560Z,99.99
2018-06-13T03:37:19.553Z,99.99
2018-06-13T03:38:19.550Z,99.99
2018-06-13T03:39:19.536Z,99.99
2018-06-13T03:40:19.528Z,99.99
2018-06-13T03:41:19.520Z,99.99
2018-06-13T03:42:19.512Z,99.99
2018-06-13T03:43:19.504Z,99.99
2018-06-13T03:44:19.497Z,99.99
2018-06-13T03:45:19.492Z,99.99
2018-06-13T03:46:19.479Z,99.99
2018-06-13T03:47:19.472Z,99.99
2018-06-13T03:48:19.464Z,99.99
2018-06-13T03:49:19.456Z,99.99
2018-06-13T03:50:19.450Z,99.99
2018-06-13T03:51:19.440Z,99.99
2018-06-13T03:52:19.435Z,99.99
2018-06-13T03:53:19.424Z,99.99
2018-06-13T03:54:19.420Z,99.99
2018-06-13T03:55:19.408Z,99.99
2018-06-13T03:56:19.404Z,99.99
2018-06-13T03:57:19.395Z,99.99
2018-06-13T03:58:19.389Z,99.99
2018-06-13T03:59:19.379Z,99.99
2018-06-13T04:00:19.372Z,99.99
2018-06-13T04:01:19.369Z,99.99
2018-06-13T04:02:19.356Z,99.99
2018-06-13T04:03:19.347Z,99.99
2018-06-13T04:04:19.337Z,99.99
2018-06-13T04:05:19.328Z,99.99
2018-06-13T04:06:19.324Z,99.99
2018-06-13T04:07:19.373Z,99.99
2018-06-13T04:08:19.303Z,99.99
2018-06-13T04:09:19.298Z,99.99
2018-06-13T04:10:19.287Z,99.99
2018-06-13T04:11:19.285Z,99.99
2018-06-13T04:12:19.274Z,99.99
2018-06-13T04:13:19.265Z,99.99
2018-06-13T04:14:19.255Z,99.99
2018-06-13T04:15:19.247Z,99.99
2018-06-13T04:16:19.243Z,99.99
2018-06-13T04:17:19.232Z,99.99
2018-06-13T04:18:19.228Z,99.99
2018-06-13T04:19:19.218Z,99.99
2018-06-13T04:20:19.209Z,99.99
2018-06-13T04:21:19.201Z,99.99
2018-06-13T04:22:19.193Z,99.99
2018-06-13T04:23:19.184Z,99.99
2018-06-13T04:24:19.177Z,99.99
2018-06-13T04:25:19.169Z,99.99
2018-06-13T04:26:19.163Z,99.99
2018-06-13T04:27:19.153Z,99.99
2018-06-13T04:28:19.149Z,99.99
2018-06-13T04:29:19.145Z,99.99
2018-06-13T04:30:19.131Z,99.99
2018-06-13T04:31:19.122Z,99.99
2018-06-13T04:32:19.116Z,99.99
2018-06-13T04:33:19.112Z,99.99
2018-06-13T04:34:19.098Z,99.99
2018-06-13T04:35:19.091Z,99.99
2018-06-13T04:36:19.083Z,99.99
2018-06-13T04:37:19.079Z,99.99
2018-06-13T04:38:19.069Z,99.99
2018-06-13T04:39:19.059Z,99.99
2018-06-13T04:40:19.053Z,99.99
2018-06-13T04:41:19.049Z,99.99
2018-06-13T04:42:19.040Z,99.99
2018-06-13T04:43:19.028Z,99.99
2018-06-13T04:44:19.021Z,99.99
2018-06-13T04:45:19.013Z,99.99
2018-06-13T04:46:19.005Z,99.99
2018-06-13T04:47:18.998Z,99.99
2018-06-13T04:48:18.995Z,99.99
2018-06-13T04:49:18.985Z,99.99
2018-06-13T04:50:19.176Z,99.99
2018-06-13T04:51:18.968Z,99.99
2018-06-13T04:52:18.965Z,99.99
2018-06-13T04:53:19.156Z,99.99
2018-06-13T04:54:18.944Z,99.99
2018-06-13T04:55:18.936Z,99.99
2018-06-13T04:56:18.929Z,99.99
2018-06-13T04:57:18.922Z,99.99
2018-06-13T04:58:18.917Z,99.99
2018-06-13T04:59:18.906Z,99.99
2018-06-13T05:00:18.902Z,99.99
2018-06-13T05:01:18.891Z,99.99
2018-06-13T05:02:18.884Z,99.99
2018-06-13T05:03:18.876Z,99.99
2018-06-13T05:04:18.869Z,99.99
2018-06-13T05:05:18.862Z,99.99
2018-06-13T05:06:19.058Z,99.99
2018-06-13T05:07:18.845Z,99.99
2018-06-13T05:08:18.837Z,99.99
2018-06-13T05:10:18.822Z,99.99
2018-06-13T05:11:18.816Z,99.99
2018-06-13T05:12:18.808Z,99.99
2018-06-13T05:13:18.805Z,99.99
2018-06-13T05:14:18.793Z,99.99
2018-06-13T05:15:18.787Z,99.99
2018-06-13T05:17:18.776Z,99.99
2018-06-13T05:18:18.763Z,99.99
2018-06-13T05:19:18.756Z,99.99
2018-06-13T05:20:18.755Z,99.99
2018-06-13T05:21:18.748Z,99.99
2018-06-13T05:22:18.737Z,99.99
2018-06-13T05:23:18.727Z,99.99
2018-06-13T05:24:18.722Z,99.99
2018-06-13T05:25:18.719Z,99.99
2018-06-13T05:26:18.709Z,99.99
2018-06-13T05:27:18.701Z,99.99
2018-06-13T05:28:18.691Z,99.99
2018-06-13T05:29:18.889Z,99.99
2018-06-13T05:30:18.677Z,99.99
2018-06-13T05:31:18.669Z,99.99
2018-06-13T05:32:18.662Z,99.99
2018-06-13T05:33:18.655Z,99.99
2018-06-13T05:34:18.647Z,99.99
2018-06-13T05:35:18.647Z,99.99
2018-06-13T05:36:18.636Z,99.99
2018-06-13T05:37:18.627Z,99.99
2018-06-13T05:38:18.618Z,99.99
2018-06-13T05:39:18.614Z,99.99
2018-06-13T05:40:18.609Z,99.99
2018-06-13T05:41:18.600Z,99.99
2018-06-13T05:42:18.593Z,99.99
2018-06-13T05:43:18.588Z,99.99
2018-06-13T05:44:18.581Z,99.99
2018-06-13T05:45:18.571Z,99.99
2018-06-13T05:46:18.566Z,99.99
2018-06-13T05:47:18.559Z,99.99
2018-06-13T05:48:18.552Z,99.99
2018-06-13T05:49:18.543Z,99.99
2018-06-13T05:50:18.543Z,99.99
2018-06-13T05:51:18.535Z,99.99
2018-06-13T05:52:18.523Z,99.99
2018-06-13T05:53:18.516Z,99.99
2018-06-13T05:54:18.509Z,99.99
2018-06-13T05:55:18.506Z,99.99
2018-06-13T05:56:18.496Z,99.99
2018-06-13T05:57:18.894Z,99.76
2018-06-13T05:58:18.483Z,99.66
2018-06-13T05:59:18.480Z,99.38
2018-06-13T06:00:18.472Z,99.38
2018-06-13T06:01:18.466Z,99.09
2018-06-13T06:02:18.456Z,98.42
2018-06-13T06:03:18.456Z,98.95
2018-06-13T06:04:18.447Z,99.09
2018-06-13T06:05:18.440Z,98.13
2018-06-13T06:06:18.431Z,98.47
2018-06-13T06:07:18.429Z,99.33
2018-06-13T06:08:18.419Z,98.95
2018-06-13T06:09:18.412Z,98.71
2018-06-13T06:10:18.469Z,98.61
2018-06-13T06:11:18.403Z,99.14
2018-06-13T06:12:18.396Z,99.28
2018-06-13T06:13:18.387Z,99.14
2018-06-13T06:14:18.380Z,98.57
2018-06-13T06:15:18.374Z,97.80
2018-06-13T06:16:18.373Z,98.57
2018-06-13T06:17:18.362Z,98.95
2018-06-13T06:18:18.392Z,98.47
2018-06-13T06:19:18.350Z,99.14
2018-06-13T06:20:18.343Z,98.75
2018-06-13T06:21:18.345Z,98.75
2018-06-13T06:22:18.331Z,98.66
2018-06-13T06:23:18.325Z,98.18
2018-06-13T06:24:18.320Z,97.42
2018-06-13T06:25:18.317Z,97.13
2018-06-13T06:26:18.311Z,97.04
2018-06-13T06:27:18.302Z,97.13
2018-06-13T06:28:18.295Z,97.23
2018-06-13T06:29:18.297Z,95.98
2018-06-13T06:30:18.284Z,96.94
2018-06-13T06:31:18.286Z,96.47
2018-06-13T06:32:18.272Z,96.32
2018-06-13T06:33:18.273Z,96.42
2018-06-13T06:34:18.261Z,96.42
2018-06-13T06:35:18.256Z,95.36
2018-06-13T06:36:18.254Z,94.89
2018-06-13T06:37:18.244Z,94.98
2018-06-13T06:38:18.241Z,96.22
2018-06-13T06:39:18.240Z,94.70
2018-06-13T06:40:18.232Z,94.89
2018-06-13T06:41:18.223Z,94.50
2018-06-13T06:42:18.217Z,94.70
2018-06-13T06:43:18.212Z,94.50
2018-06-13T06:44:18.209Z,94.60
2018-06-13T06:45:18.204Z,94.70
2018-06-13T06:46:18.196Z,94.21
2018-06-13T06:47:18.196Z,94.89
2018-06-13T06:48:18.189Z,94.60
2018-06-13T06:49:18.184Z,94.21
2018-06-13T06:50:18.184Z,94.31
2018-06-13T06:51:18.375Z,94.31
2018-06-13T06:52:18.174Z,93.84
2018-06-13T06:53:18.165Z,94.89
2018-06-13T06:54:18.160Z,94.60
2018-06-13T06:55:18.150Z,95.07
2018-06-13T06:56:18.145Z,95.07
2018-06-13T06:57:18.139Z,94.60
2018-06-13T06:58:18.135Z,94.70
2018-06-13T06:59:18.132Z,94.70
2018-06-13T07:00:18.126Z,94.60
2018-06-13T07:01:18.121Z,93.50
2018-06-13T07:02:18.112Z,94.26
2018-06-13T07:03:18.109Z,93.79
2018-06-13T07:04:18.114Z,94.65
2018-06-13T07:05:18.098Z,93.84
2018-06-13T07:06:18.093Z,93.30
2018-06-13T07:07:18.090Z,93.40
2018-06-13T07:08:18.082Z,93.88
2018-06-13T07:09:18.082Z,93.50
2018-06-13T07:10:18.072Z,92.35
2018-06-13T07:11:18.067Z,91.68
2018-06-13T07:12:18.264Z,91.97
2018-06-13T07:13:18.115Z,92.35
2018-06-13T07:14:18.052Z,92.06
2018-06-13T07:15:18.046Z,92.63
2018-06-13T07:16:18.041Z,91.87
2018-06-13T07:17:18.037Z,93.55
2018-06-13T07:18:18.034Z,92.83
2018-06-13T07:19:18.028Z,93.40
2018-06-13T07:20:18.023Z,92.78
2018-06-13T07:21:18.019Z,93.07
2018-06-13T07:22:18.012Z,93.84
2018-06-13T07:24:17.999Z,92.59
2018-06-13T07:25:17.994Z,92.59
2018-06-13T07:26:17.987Z,92.40
2018-06-13T07:27:18.184Z,93.07
2018-06-13T07:28:17.976Z,92.69
2018-06-13T07:29:17.971Z,93.55
2018-06-13T07:30:17.968Z,93.35
2018-06-13T07:31:18.161Z,94.41
2018-06-13T07:32:17.954Z,92.30
2018-06-13T07:33:17.947Z,92.69
2018-06-13T07:34:17.941Z,92.88
2018-06-13T07:35:17.937Z,92.97
2018-06-13T07:36:17.933Z,93.64
2018-06-13T07:37:17.932Z,93.93
2018-06-13T07:38:17.917Z,92.69
2018-06-13T07:39:17.913Z,91.83
2018-06-13T07:40:17.908Z,92.49
2018-06-13T07:41:17.903Z,92.59
2018-06-13T07:42:17.894Z,92.59
2018-06-13T07:43:17.889Z,91.83
2018-06-13T07:44:17.883Z,92.88
2018-06-13T07:45:17.885Z,91.83
2018-06-13T07:46:17.875Z,91.73
2018-06-13T07:47:17.871Z,91.39
2018-06-13T07:49:17.861Z,90.24
2018-06-13T07:50:17.851Z,90.58
2018-06-13T07:51:17.848Z,88.71
2018-06-13T07:52:17.840Z,88.95
2018-06-13T07:53:17.835Z,88.37
2018-06-13T07:54:17.830Z,86.80
2018-06-13T07:55:17.896Z,87.37
2018-06-13T07:56:17.823Z,88.04
2018-06-13T07:57:17.819Z,86.13
2018-06-13T07:58:17.810Z,87.08
2018-06-13T07:59:17.805Z,88.43
2018-06-13T08:00:17.804Z,88.13
2018-06-13T08:01:17.799Z,87.08
2018-06-13T08:02:17.798Z,87.61
2018-06-13T08:03:17.786Z,87.61
2018-06-13T08:04:17.782Z,86.36
2018-06-13T08:05:17.778Z,85.41
2018-06-13T08:06:17.775Z,85.50
2018-06-13T08:07:17.770Z,85.69
2018-06-13T08:08:17.815Z,85.60
2018-06-13T08:09:17.760Z,84.55
2018-06-13T08:10:17.755Z,85.41
2018-06-13T08:11:17.755Z,86.46
2018-06-13T08:12:17.746Z,84.83
2018-06-13T08:13:17.746Z,86.08
2018-06-13T08:14:17.737Z,88.52
2018-06-13T08:15:17.732Z,89.48
2018-06-13T08:16:17.734Z,89.86
2018-06-13T08:17:17.729Z,89.34
2018-06-13T08:18:17.716Z,89.81
2018-06-13T08:19:17.712Z,90.39
2018-06-13T08:20:17.711Z,91.25
2018-06-13T08:21:17.704Z,91.53
2018-06-13T08:22:17.696Z,92.30
2018-06-13T08:23:17.691Z,92.97
2018-06-13T08:24:17.686Z,92.21
2018-06-13T08:25:17.686Z,90.67
2018-06-13T08:26:17.677Z,91.35
2018-06-13T08:27:17.673Z,89.91
2018-06-13T08:28:17.665Z,90.77
2018-06-13T08:29:17.661Z,89.53
2018-06-13T08:30:17.653Z,88.13
2018-06-13T08:31:17.651Z,86.90
2018-06-13T08:32:17.644Z,87.27
2018-06-13T08:33:17.641Z,87.51
2018-06-13T08:34:17.634Z,87.27
2018-06-13T08:35:17.632Z,86.41
2018-06-13T08:36:17.627Z,86.07
2018-06-13T08:37:17.670Z,84.25
2018-06-13T08:38:17.620Z,84.25
2018-06-13T08:39:17.617Z,82.94
2018-06-13T08:40:17.617Z,82.46
2018-06-13T08:41:17.615Z,81.89
2018-06-13T08:42:17.609Z,81.70
2018-06-13T08:43:17.609Z,80.64
2018-06-13T08:44:17.606Z,80.87
2018-06-13T08:45:17.604Z,79.34
2018-06-13T08:46:17.600Z,80.93
2018-06-13T08:47:17.806Z,81.51
2018-06-13T08:48:17.597Z,81.79
2018-06-13T08:49:17.597Z,83.04
2018-06-13T08:50:17.594Z,81.79
2018-06-13T08:51:17.593Z,81.70
2018-06-13T08:52:17.591Z,83.81
2018-06-13T08:53:17.586Z,82.08
2018-06-13T08:54:17.583Z,83.00
2018-06-13T08:55:17.588Z,83.04
2018-06-13T08:56:17.783Z,83.29
2018-06-13T08:57:17.576Z,82.32
2018-06-13T08:58:17.780Z,83.58
2018-06-13T08:59:17.571Z,83.19
2018-06-13T09:00:17.569Z,84.53
2018-06-13T09:01:17.571Z,84.91
2018-06-13T09:02:17.563Z,84.91
2018-06-13T09:03:17.608Z,84.63
2018-06-13T09:04:17.559Z,84.28
2018-06-13T09:05:17.557Z,84.09
2018-06-13T09:06:17.554Z,84.00
2018-06-13T09:07:17.554Z,81.98
2018-06-13T09:08:17.551Z,81.31
2018-06-13T09:09:17.549Z,80.55
2018-06-13T09:10:17.549Z,81.54
2018-06-13T09:11:17.547Z,83.18
2018-06-13T09:12:17.546Z,81.16
2018-06-13T09:13:17.545Z,80.30
2018-06-13T09:14:17.540Z,78.47
2018-06-13T09:15:17.544Z,77.65
2018-06-13T09:16:17.539Z,78.52
2018-06-13T09:17:17.542Z,77.46
2018-06-13T09:18:17.744Z,76.79
2018-06-13T09:19:17.543Z,78.09
2018-06-13T09:20:17.535Z,78.38
2018-06-13T09:21:17.534Z,77.80
2018-06-13T09:22:17.540Z,78.86
2018-06-13T09:23:17.537Z,79.34
2018-06-13T09:24:17.534Z,80.01
2018-06-13T09:25:17.535Z,80.78
2018-06-13T09:26:17.529Z,80.49
2018-06-13T09:27:17.528Z,80.15
2018-06-13T09:28:17.528Z,78.32
2018-06-13T09:29:17.532Z,77.08
2018-06-13T09:30:17.530Z,76.98
2018-06-13T09:31:17.540Z,78.13
2018-06-13T09:32:17.525Z,77.56
2018-06-13T09:33:17.524Z,76.12
2018-06-13T09:34:17.523Z,74.48
2018-06-13T09:35:17.526Z,76.59
2018-06-13T09:36:17.524Z,75.73
2018-06-13T09:37:17.584Z,75.82
2018-06-13T09:38:17.526Z,76.69
2018-06-13T09:39:17.526Z,75.54
2018-06-13T09:40:17.524Z,75.92
2018-06-13T09:41:17.521Z,75.15
2018-06-13T09:42:17.525Z,76.59
2018-06-13T09:43:17.519Z,76.02
2018-06-13T09:44:17.525Z,76.59
2018-06-13T09:45:17.519Z,77.36
2018-06-13T09:46:17.524Z,78.77
2018-06-13T09:47:23.457Z,78.96
2018-06-13T09:48:17.523Z,81.84
2018-06-13T09:49:17.518Z,82.18
2018-06-13T09:50:17.512Z,81.56
2018-06-13T09:51:17.513Z,83.05
2018-06-13T09:52:17.515Z,84.97
2018-06-13T09:53:17.505Z,85.12
2018-06-13T09:54:17.501Z,83.20
2018-06-13T09:55:17.503Z,84.45
2018-06-13T09:56:17.496Z,85.41
2018-06-13T09:57:17.493Z,86.27
2018-06-13T09:58:17.493Z,84.88
2018-06-13T09:59:17.486Z,83.15
2018-06-13T10:00:17.483Z,84.11
2018-06-13T10:01:17.486Z,83.00
2018-06-13T10:02:17.485Z,83.76
2018-06-13T10:03:17.477Z,83.58
2018-06-13T10:04:17.471Z,80.35
2018-06-13T10:05:17.468Z,79.78
2018-06-13T10:06:17.468Z,79.30
2018-06-13T10:07:17.670Z,78.72
2018-06-13T10:08:17.460Z,78.44
2018-06-13T10:09:17.460Z,76.71
2018-06-13T10:10:17.455Z,77.86
2018-06-13T10:11:17.526Z,77.04
2018-06-13T10:12:17.453Z,76.27
2018-06-13T10:13:17.451Z,74.06
2018-06-13T10:14:17.448Z,76.31
2018-06-13T10:15:17.447Z,74.96
2018-06-13T10:16:17.440Z,75.92
2018-06-13T10:17:17.438Z,75.45
2018-06-13T10:18:17.437Z,73.75
2018-06-13T10:19:17.435Z,72.79
2018-06-13T10:20:17.436Z,72.02
2018-06-13T10:21:17.433Z,70.39
2018-06-13T10:22:17.502Z,69.34
2018-06-13T10:23:17.633Z,69.34
2018-06-13T10:24:17.435Z,70.62
2018-06-13T10:25:17.435Z,70.52
2018-06-13T10:27:17.428Z,71.87
2018-06-13T10:28:17.430Z,73.02
2018-06-13T10:29:17.431Z,71.39
2018-06-13T10:30:17.432Z,69.08
2018-06-13T10:31:17.431Z,69.08
2018-06-13T10:32:17.429Z,69.08
2018-06-13T10:33:17.431Z,69.50
2018-06-13T10:34:17.451Z,71.04
2018-06-13T10:35:17.429Z,69.79
2018-06-13T10:36:17.432Z,68.44
2018-06-13T10:37:17.431Z,65.94
2018-06-13T10:38:17.431Z,66.94
2018-06-13T10:39:17.438Z,66.65
2018-06-13T10:40:17.437Z,67.42
2018-06-13T10:41:17.437Z,66.94
2018-06-13T10:42:17.438Z,66.36
2018-06-13T10:43:17.438Z,65.81
2018-06-13T10:44:17.440Z,66.30
2018-06-13T10:45:17.446Z,66.01
2018-06-13T10:46:17.446Z,65.72
2018-06-13T10:47:17.448Z,66.97
2018-06-13T10:48:17.448Z,67.45
2018-06-13T10:49:17.451Z,67.74
2018-06-13T10:50:17.457Z,66.14
2018-06-13T10:51:17.456Z,64.98
2018-06-13T10:52:17.459Z,64.69
2018-06-13T10:53:17.463Z,64.59
2018-06-13T10:54:17.464Z,64.37
2018-06-13T10:55:17.467Z,63.99
2018-06-13T10:56:17.474Z,64.76
2018-06-13T10:57:17.478Z,62.93
2018-06-13T10:58:17.478Z,64.28
2018-06-13T10:59:17.476Z,65.40
2018-06-13T11:00:17.483Z,65.30
2018-06-13T11:01:17.482Z,65.11
2018-06-13T11:02:17.485Z,64.98
2018-06-13T11:03:17.687Z,68.54
2018-06-13T11:04:17.487Z,66.07
2018-06-13T11:05:17.485Z,67.51
2018-06-13T11:06:17.483Z,68.66
2018-06-13T11:07:17.486Z,69.49
2018-06-13T11:08:17.483Z,69.97
2018-06-13T11:09:17.485Z,69.53
2018-06-13T11:10:17.489Z,69.81
2018-06-13T11:11:17.479Z,69.05
2018-06-13T11:12:17.478Z,71.41
2018-06-13T11:13:17.479Z,73.52
2018-06-13T11:14:17.475Z,72.85
2018-06-13T11:15:17.476Z,74.19
2018-06-13T11:16:17.473Z,73.33
2018-06-13T11:17:17.471Z,73.58
2018-06-13T11:18:17.474Z,72.37
2018-06-13T11:19:17.467Z,73.39
2018-06-13T11:20:17.500Z,71.98
2018-06-13T11:21:17.463Z,73.58
2018-06-13T11:22:17.460Z,73.49
2018-06-13T11:23:17.458Z,73.81
2018-06-13T11:24:17.458Z,73.04
2018-06-13T11:25:17.455Z,73.91
2018-06-13T11:26:17.451Z,73.81
2018-06-13T11:27:17.450Z,74.13
2018-06-13T11:28:17.447Z,73.08
2018-06-13T11:29:17.447Z,72.79
2018-06-13T11:30:17.443Z,71.45
2018-06-13T11:31:17.648Z,71.31
2018-06-13T11:32:17.440Z,71.12
2018-06-13T11:33:17.437Z,71.98
2018-06-13T11:34:17.435Z,72.66
2018-06-13T11:35:17.431Z,72.05
2018-06-13T11:36:17.428Z,73.30
2018-06-13T11:37:17.429Z,75.70
2018-06-13T11:38:17.424Z,73.97
2018-06-13T11:39:17.420Z,75.02
2018-06-13T11:40:17.420Z,73.10
2018-06-13T11:41:17.415Z,73.20
2018-06-13T11:42:17.416Z,73.45
2018-06-13T11:43:17.410Z,74.22
2018-06-13T11:44:17.407Z,73.74
2018-06-13T11:45:17.405Z,74.69
2018-06-13T11:46:17.401Z,75.75
2018-06-13T11:47:17.393Z,76.67
2018-06-13T11:48:17.390Z,77.82
2018-06-13T11:49:17.386Z,78.49
2018-06-13T11:50:17.382Z,78.49
2018-06-13T11:51:17.414Z,75.81
2018-06-13T11:52:17.374Z,76.86
2018-06-13T11:53:17.372Z,77.34
2018-06-13T11:54:17.365Z,78.02
2018-06-13T11:55:17.365Z,76.86
2018-06-13T11:56:17.360Z,77.58
2018-06-13T11:57:17.354Z,77.29
2018-06-13T11:58:17.352Z,77.67
2018-06-13T11:59:17.346Z,76.90
2018-06-13T12:00:17.370Z,78.05
2018-06-13T12:01:17.340Z,76.81
2018-06-13T12:02:17.335Z,77.38
2018-06-13T12:03:17.329Z,75.95
2018-06-13T12:04:17.326Z,77.23
2018-06-13T12:05:17.326Z,77.04
2018-06-13T12:06:17.520Z,77.90
2018-06-13T12:07:17.321Z,76.65
2018-06-13T12:08:17.313Z,75.54
2018-06-13T12:09:17.309Z,77.17
2018-06-13T12:10:17.303Z,75.06
2018-06-13T12:11:17.305Z,75.25
2018-06-13T12:12:17.297Z,75.06
2018-06-13T12:13:17.294Z,73.18
2018-06-13T12:14:17.298Z,73.18
2018-06-13T12:15:17.288Z,72.99
2018-06-13T12:16:17.290Z,72.41
2018-06-13T12:17:17.284Z,73.88
2018-06-13T12:18:17.282Z,72.92
2018-06-13T12:19:17.282Z,74.17
2018-06-13T12:21:17.286Z,70.23
2018-06-13T12:22:17.274Z,70.58
2018-06-13T12:23:17.272Z,70.58
2018-06-13T12:24:17.280Z,70.87
2018-06-13T12:25:17.267Z,72.50
2018-06-13T12:26:17.266Z,71.64
2018-06-13T12:27:17.261Z,71.83
2018-06-13T12:28:17.259Z,72.25
2018-06-13T12:29:17.257Z,71.64
2018-06-13T12:30:17.255Z,71.16
2018-06-13T12:31:17.255Z,70.01
2018-06-13T12:32:17.253Z,70.14
2018-06-13T12:33:17.252Z,71.19
2018-06-13T12:34:17.292Z,72.16
2018-06-13T12:35:17.248Z,70.17
2018-06-13T12:36:17.245Z,70.04
2018-06-13T12:37:17.251Z,69.08
2018-06-13T12:38:17.252Z,67.83
2018-06-13T12:39:17.240Z,68.89
2018-06-13T12:40:17.244Z,72.06
2018-06-13T12:41:17.242Z,72.44
2018-06-13T12:42:17.239Z,71.67
2018-06-13T12:43:17.234Z,71.73
2018-06-13T12:44:17.239Z,70.78
2018-06-13T12:45:17.230Z,71.35
2018-06-13T12:46:17.228Z,72.22
2018-06-13T12:47:17.227Z,70.39
2018-06-13T12:48:17.233Z,70.49
2018-06-13T12:49:17.223Z,70.58
2018-06-13T12:50:17.220Z,71.80
2018-06-13T12:51:17.220Z,72.28
2018-06-13T12:52:17.223Z,72.85
2018-06-13T12:53:17.222Z,73.33
2018-06-13T12:54:17.214Z,73.68
2018-06-13T12:55:17.209Z,74.01
2018-06-13T12:56:17.205Z,74.16
2018-06-13T12:57:17.203Z,73.30
2018-06-13T12:58:17.199Z,74.93
2018-06-13T12:59:17.231Z,76.27